sensor_id;sensor_type;location;lat;lon;timestamp;pressure;altitude;pressure_sealevel;temperature;humidity
79639;BME280;69114;49.108;8.280;2023-08-07T00:01:29;100382.47;;;12.76;74.77
79639;BME280;69114;49.108;8.280;2023-08-07T00:03:55;100371.31;;;12.76;74.60
79639;BME280;69114;49.108;8.280;2023-08-07T00:06:20;100376.75;;;12.73;74.56
79639;BME280;69114;49.108;8.280;2023-08-07T00:08:45;100370.00;;;12.74;74.87
79639;BME280;69114;49.108;8.280;2023-08-07T00:11:11;100368.19;;;12.69;75.62
79639;BME280;69114;49.108;8.280;2023-08-07T00:13:37;100375.94;;;12.72;75.11
79639;BME280;69114;49.108;8.280;2023-08-07T00:16:02;100375.56;;;12.65;75.85
79639;BME280;69114;49.108;8.280;2023-08-07T00:18:29;100358.97;;;12.69;74.94
79639;BME280;69114;49.108;8.280;2023-08-07T00:20:54;100374.94;;;12.68;74.29
79639;BME280;69114;49.108;8.280;2023-08-07T00:23:19;100379.19;;;12.66;74.55
79639;BME280;69114;49.108;8.280;2023-08-07T00:25:45;100362.94;;;12.68;74.16
79639;BME280;69114;49.108;8.280;2023-08-07T00:28:10;100375.56;;;12.65;74.40
79639;BME280;69114;49.108;8.280;2023-08-07T00:30:35;100365.53;;;12.64;74.47
79639;BME280;69114;49.108;8.280;2023-08-07T00:33:01;100370.13;;;12.60;74.47
79639;BME280;69114;49.108;8.280;2023-08-07T00:35:26;100365.03;;;12.62;74.84
79639;BME280;69114;49.108;8.280;2023-08-07T00:37:51;100367.97;;;12.57;74.66
79639;BME280;69114;49.108;8.280;2023-08-07T00:40:17;100366.97;;;12.53;75.27
79639;BME280;69114;49.108;8.280;2023-08-07T00:42:42;100372.09;;;12.60;74.71
79639;BME280;69114;49.108;8.280;2023-08-07T00:45:08;100374.56;;;12.61;74.39
79639;BME280;69114;49.108;8.280;2023-08-07T00:47:33;100375.06;;;12.54;74.67
79639;BME280;69114;49.108;8.280;2023-08-07T00:49:59;100371.91;;;12.56;74.37
79639;BME280;69114;49.108;8.280;2023-08-07T00:52:25;100388.19;;;12.54;74.14
79639;BME280;69114;49.108;8.280;2023-08-07T00:54:50;100379.81;;;12.54;74.79
79639;BME280;69114;49.108;8.280;2023-08-07T00:57:16;100379.00;;;12.53;74.63
79639;BME280;69114;49.108;8.280;2023-08-07T00:59:42;100376.50;;;12.52;74.63
79639;BME280;69114;49.108;8.280;2023-08-07T01:02:09;100382.75;;;12.49;74.43
79639;BME280;69114;49.108;8.280;2023-08-07T01:04:35;100375.84;;;12.46;74.41
79639;BME280;69114;49.108;8.280;2023-08-07T01:07:00;100386.34;;;12.41;74.90
79639;BME280;69114;49.108;8.280;2023-08-07T01:09:26;100373.84;;;12.38;74.69
79639;BME280;69114;49.108;8.280;2023-08-07T01:17:10;100375.16;;;12.41;74.61
79639;BME280;69114;49.108;8.280;2023-08-07T01:19:36;100372.03;;;12.42;74.21
79639;BME280;69114;49.108;8.280;2023-08-07T01:24:35;100378.63;;;12.46;74.04
79639;BME280;69114;49.108;8.280;2023-08-07T01:27:26;100380.13;;;12.44;74.83
79639;BME280;69114;49.108;8.280;2023-08-07T01:30:12;100380.09;;;12.35;74.95
79639;BME280;69114;49.108;8.280;2023-08-07T01:35:33;100372.31;;;12.23;75.75
79639;BME280;69114;49.108;8.280;2023-08-07T01:38:00;100371.47;;;12.23;75.34
79639;BME280;69114;49.108;8.280;2023-08-07T01:40:27;100390.34;;;12.17;75.65
79639;BME280;69114;49.108;8.280;2023-08-07T01:42:53;100370.00;;;12.17;75.99
79639;BME280;69114;49.108;8.280;2023-08-07T01:45:26;100380.16;;;12.13;75.81
79639;BME280;69114;49.108;8.280;2023-08-07T01:47:52;100370.44;;;12.10;76.08
79639;BME280;69114;49.108;8.280;2023-08-07T01:50:18;100375.03;;;12.06;76.30
79639;BME280;69114;49.108;8.280;2023-08-07T01:52:44;100386.22;;;12.06;75.37
79639;BME280;69114;49.108;8.280;2023-08-07T01:55:10;100385.06;;;12.07;75.61
79639;BME280;69114;49.108;8.280;2023-08-07T01:57:36;100395.97;;;11.95;76.83
79639;BME280;69114;49.108;8.280;2023-08-07T02:00:01;100393.31;;;11.90;76.65
79639;BME280;69114;49.108;8.280;2023-08-07T02:02:26;100385.59;;;11.87;76.85
79639;BME280;69114;49.108;8.280;2023-08-07T02:04:51;100391.81;;;11.84;77.16
79639;BME280;69114;49.108;8.280;2023-08-07T02:07:17;100392.63;;;11.84;77.17
79639;BME280;69114;49.108;8.280;2023-08-07T02:09:42;100393.47;;;11.85;77.25
79639;BME280;69114;49.108;8.280;2023-08-07T02:12:08;100400.78;;;11.80;77.06
79639;BME280;69114;49.108;8.280;2023-08-07T02:14:36;100395.88;;;11.77;77.16
79639;BME280;69114;49.108;8.280;2023-08-07T02:17:01;100388.47;;;11.82;77.28
79639;BME280;69114;49.108;8.280;2023-08-07T02:19:26;100390.59;;;11.76;77.24
79639;BME280;69114;49.108;8.280;2023-08-07T02:21:52;100393.91;;;11.78;77.40
79639;BME280;69114;49.108;8.280;2023-08-07T02:24:17;100392.22;;;11.77;77.77
79639;BME280;69114;49.108;8.280;2023-08-07T02:26:44;100394.03;;;11.73;77.98
79639;BME280;69114;49.108;8.280;2023-08-07T02:29:10;100386.97;;;11.75;77.81
79639;BME280;69114;49.108;8.280;2023-08-07T02:31:35;100394.84;;;11.73;77.87
79639;BME280;69114;49.108;8.280;2023-08-07T02:34:00;100396.50;;;11.74;77.86
79639;BME280;69114;49.108;8.280;2023-08-07T02:36:26;100400.03;;;11.66;78.10
79639;BME280;69114;49.108;8.280;2023-08-07T02:38:51;100390.97;;;11.61;78.22
79639;BME280;69114;49.108;8.280;2023-08-07T02:41:16;100382.28;;;11.62;78.07
79639;BME280;69114;49.108;8.280;2023-08-07T02:43:42;100385.72;;;11.59;78.98
79639;BME280;69114;49.108;8.280;2023-08-07T02:46:08;100388.00;;;11.57;78.31
79639;BME280;69114;49.108;8.280;2023-08-07T02:48:33;100389.00;;;11.61;78.65
79639;BME280;69114;49.108;8.280;2023-08-07T02:50:58;100388.53;;;11.59;78.79
79639;BME280;69114;49.108;8.280;2023-08-07T02:53:24;100396.63;;;11.69;78.10
79639;BME280;69114;49.108;8.280;2023-08-07T02:55:49;100400.56;;;11.68;78.31
79639;BME280;69114;49.108;8.280;2023-08-07T02:58:14;100398.75;;;11.72;77.81
79639;BME280;69114;49.108;8.280;2023-08-07T03:00:39;100399.16;;;11.79;77.97
79639;BME280;69114;49.108;8.280;2023-08-07T03:03:05;100392.19;;;11.68;78.48
79639;BME280;69114;49.108;8.280;2023-08-07T03:05:30;100388.25;;;11.69;78.74
79639;BME280;69114;49.108;8.280;2023-08-07T03:07:55;100386.22;;;11.61;78.89
79639;BME280;69114;49.108;8.280;2023-08-07T03:10:21;100384.06;;;11.58;79.04
79639;BME280;69114;49.108;8.280;2023-08-07T03:12:46;100391.31;;;11.59;79.43
79639;BME280;69114;49.108;8.280;2023-08-07T03:15:12;100392.44;;;11.58;79.64
79639;BME280;69114;49.108;8.280;2023-08-07T03:17:37;100397.38;;;11.61;78.95
79639;BME280;69114;49.108;8.280;2023-08-07T03:20:02;100397.56;;;11.65;78.65
79639;BME280;69114;49.108;8.280;2023-08-07T03:22:29;100403.16;;;11.65;79.32
79639;BME280;69114;49.108;8.280;2023-08-07T03:24:54;100406.91;;;11.60;79.42
79639;BME280;69114;49.108;8.280;2023-08-07T03:27:20;100397.91;;;11.63;79.01
79639;BME280;69114;49.108;8.280;2023-08-07T03:29:46;100407.91;;;11.64;78.91
79639;BME280;69114;49.108;8.280;2023-08-07T03:32:11;100409.88;;;11.64;78.91
79639;BME280;69114;49.108;8.280;2023-08-07T03:34:36;100411.59;;;11.73;78.20
79639;BME280;69114;49.108;8.280;2023-08-07T03:37:02;100416.53;;;11.76;78.10
79639;BME280;69114;49.108;8.280;2023-08-07T03:39:27;100415.19;;;11.74;78.78
79639;BME280;69114;49.108;8.280;2023-08-07T03:41:52;100410.44;;;11.74;78.58
79639;BME280;69114;49.108;8.280;2023-08-07T03:44:18;100417.03;;;11.78;78.36
79639;BME280;69114;49.108;8.280;2023-08-07T03:46:43;100414.47;;;11.82;78.02
79639;BME280;69114;49.108;8.280;2023-08-07T03:49:08;100405.78;;;11.84;78.19
79639;BME280;69114;49.108;8.280;2023-08-07T03:51:34;100409.72;;;11.83;78.47
79639;BME280;69114;49.108;8.280;2023-08-07T03:53:59;100411.94;;;11.80;79.39
79639;BME280;69114;49.108;8.280;2023-08-07T03:56:24;100424.66;;;11.87;78.05
79639;BME280;69114;49.108;8.280;2023-08-07T03:58:50;100423.78;;;11.77;78.47
79639;BME280;69114;49.108;8.280;2023-08-07T04:01:16;100423.94;;;11.81;78.18
79639;BME280;69114;49.108;8.280;2023-08-07T04:03:41;100428.09;;;11.84;78.12
79639;BME280;69114;49.108;8.280;2023-08-07T04:06:07;100422.88;;;11.91;78.22
79639;BME280;69114;49.108;8.280;2023-08-07T04:08:32;100421.47;;;11.79;79.59
79639;BME280;69114;49.108;8.280;2023-08-07T04:11:03;100430.13;;;11.92;79.04
79639;BME280;69114;49.108;8.280;2023-08-07T04:13:28;100430.91;;;11.84;79.96
79639;BME280;69114;49.108;8.280;2023-08-07T04:15:54;100441.41;;;11.64;80.02
79639;BME280;69114;49.108;8.280;2023-08-07T04:18:19;100432.50;;;11.62;80.60
79639;BME280;69114;49.108;8.280;2023-08-07T04:20:49;100443.03;;;11.65;81.36
79639;BME280;69114;49.108;8.280;2023-08-07T04:23:15;100445.50;;;11.67;81.55
79639;BME280;69114;49.108;8.280;2023-08-07T04:25:40;100446.97;;;11.64;81.39
79639;BME280;69114;49.108;8.280;2023-08-07T04:28:05;100455.16;;;11.61;80.70
79639;BME280;69114;49.108;8.280;2023-08-07T04:30:31;100448.66;;;11.51;81.54
79639;BME280;69114;49.108;8.280;2023-08-07T04:32:56;100456.34;;;11.46;82.26
79639;BME280;69114;49.108;8.280;2023-08-07T04:35:21;100455.31;;;11.42;82.30
79639;BME280;69114;49.108;8.280;2023-08-07T04:37:46;100460.53;;;11.35;82.04
79639;BME280;69114;49.108;8.280;2023-08-07T04:40:12;100458.84;;;11.34;82.48
79639;BME280;69114;49.108;8.280;2023-08-07T04:42:37;100457.00;;;11.29;83.08
79639;BME280;69114;49.108;8.280;2023-08-07T04:45:03;100454.53;;;11.27;83.89
79639;BME280;69114;49.108;8.280;2023-08-07T04:47:29;100451.88;;;11.22;83.48
79639;BME280;69114;49.108;8.280;2023-08-07T04:49:54;100451.38;;;11.20;83.41
79639;BME280;69114;49.108;8.280;2023-08-07T04:52:19;100454.03;;;11.25;83.45
79639;BME280;69114;49.108;8.280;2023-08-07T04:54:44;100453.72;;;11.27;82.91
79639;BME280;69114;49.108;8.280;2023-08-07T04:57:10;100457.31;;;11.27;83.38
79639;BME280;69114;49.108;8.280;2023-08-07T04:59:35;100459.78;;;11.29;82.79
79639;BME280;69114;49.108;8.280;2023-08-07T05:02:01;100468.88;;;11.35;83.02
79639;BME280;69114;49.108;8.280;2023-08-07T05:04:26;100468.56;;;11.36;82.89
79639;BME280;69114;49.108;8.280;2023-08-07T05:06:51;100468.75;;;11.40;82.59
79639;BME280;69114;49.108;8.280;2023-08-07T05:09:16;100476.69;;;11.46;82.13
79639;BME280;69114;49.108;8.280;2023-08-07T05:11:42;100473.69;;;11.43;82.87
79639;BME280;69114;49.108;8.280;2023-08-07T05:14:07;100479.69;;;11.50;82.85
79639;BME280;69114;49.108;8.280;2023-08-07T05:16:32;100477.63;;;11.42;83.36
79639;BME280;69114;49.108;8.280;2023-08-07T05:18:58;100476.59;;;11.38;83.30
79639;BME280;69114;49.108;8.280;2023-08-07T05:21:23;100480.88;;;11.35;83.98
79639;BME280;69114;49.108;8.280;2023-08-07T05:23:48;100475.34;;;11.44;83.35
79639;BME280;69114;49.108;8.280;2023-08-07T05:26:18;100481.78;;;11.44;83.51
79639;BME280;69114;49.108;8.280;2023-08-07T05:28:43;100481.44;;;11.46;83.09
79639;BME280;69114;49.108;8.280;2023-08-07T05:31:08;100492.34;;;11.56;82.96
79639;BME280;69114;49.108;8.280;2023-08-07T05:33:34;100491.00;;;11.53;82.93
79639;BME280;69114;49.108;8.280;2023-08-07T05:35:59;100500.34;;;11.49;83.25
79639;BME280;69114;49.108;8.280;2023-08-07T05:38:24;100499.78;;;11.61;83.38
79639;BME280;69114;49.108;8.280;2023-08-07T05:40:50;100514.06;;;11.59;82.98
79639;BME280;69114;49.108;8.280;2023-08-07T05:43:16;100507.56;;;11.50;83.02
79639;BME280;69114;49.108;8.280;2023-08-07T05:45:42;100510.16;;;11.46;83.14
79639;BME280;69114;49.108;8.280;2023-08-07T05:48:07;100514.38;;;11.44;83.47
79639;BME280;69114;49.108;8.280;2023-08-07T05:50:34;100512.94;;;11.46;83.27
79639;BME280;69114;49.108;8.280;2023-08-07T05:52:59;100520.66;;;11.63;82.71
79639;BME280;69114;49.108;8.280;2023-08-07T05:55:25;100529.25;;;11.53;83.67
79639;BME280;69114;49.108;8.280;2023-08-07T05:57:50;100526.97;;;11.55;82.93
79639;BME280;69114;49.108;8.280;2023-08-07T06:00:16;100524.28;;;11.64;82.88
79639;BME280;69114;49.108;8.280;2023-08-07T06:02:46;100537.91;;;11.65;82.86
79639;BME280;69114;49.108;8.280;2023-08-07T06:05:11;100530.69;;;11.64;82.47
79639;BME280;69114;49.108;8.280;2023-08-07T06:07:39;100530.75;;;11.73;82.28
79639;BME280;69114;49.108;8.280;2023-08-07T06:10:05;100527.13;;;11.72;82.80
79639;BME280;69114;49.108;8.280;2023-08-07T06:12:31;100531.47;;;11.78;81.82
79639;BME280;69114;49.108;8.280;2023-08-07T06:14:56;100541.13;;;11.95;81.41
79639;BME280;69114;49.108;8.280;2023-08-07T06:17:21;100552.03;;;12.05;81.11
79639;BME280;69114;49.108;8.280;2023-08-07T06:19:47;100556.19;;;12.08;81.23
79639;BME280;69114;49.108;8.280;2023-08-07T06:22:12;100552.50;;;11.98;81.08
79639;BME280;69114;49.108;8.280;2023-08-07T06:24:37;100544.63;;;12.00;81.55
79639;BME280;69114;49.108;8.280;2023-08-07T06:27:03;100551.75;;;12.07;81.17
79639;BME280;69114;49.108;8.280;2023-08-07T06:29:28;100549.19;;;12.19;80.32
79639;BME280;69114;49.108;8.280;2023-08-07T06:31:53;100542.78;;;12.18;79.35
79639;BME280;69114;49.108;8.280;2023-08-07T06:34:19;100553.81;;;12.23;80.22
79639;BME280;69114;49.108;8.280;2023-08-07T06:36:44;100546.41;;;12.19;80.16
79639;BME280;69114;49.108;8.280;2023-08-07T06:39:09;100541.38;;;12.29;80.17
79639;BME280;69114;49.108;8.280;2023-08-07T06:41:35;100559.47;;;12.32;80.05
79639;BME280;69114;49.108;8.280;2023-08-07T06:44:01;100556.69;;;12.32;79.95
79639;BME280;69114;49.108;8.280;2023-08-07T06:46:26;100551.72;;;12.29;79.33
79639;BME280;69114;49.108;8.280;2023-08-07T06:48:53;100544.69;;;12.32;79.90
79639;BME280;69114;49.108;8.280;2023-08-07T06:51:18;100546.34;;;12.33;80.39
79639;BME280;69114;49.108;8.280;2023-08-07T06:53:44;100542.38;;;12.34;80.31
79639;BME280;69114;49.108;8.280;2023-08-07T06:56:09;100550.16;;;12.37;79.48
79639;BME280;69114;49.108;8.280;2023-08-07T06:58:34;100542.59;;;12.37;79.68
79639;BME280;69114;49.108;8.280;2023-08-07T07:01:00;100549.38;;;12.45;78.49
79639;BME280;69114;49.108;8.280;2023-08-07T07:03:25;100546.16;;;12.60;78.16
79639;BME280;69114;49.108;8.280;2023-08-07T07:05:50;100550.94;;;12.60;77.89
79639;BME280;69114;49.108;8.280;2023-08-07T07:08:16;100548.88;;;12.74;77.18
79639;BME280;69114;49.108;8.280;2023-08-07T07:10:41;100536.22;;;12.76;76.46
79639;BME280;69114;49.108;8.280;2023-08-07T07:13:06;100540.72;;;12.95;75.47
79639;BME280;69114;49.108;8.280;2023-08-07T07:15:34;100545.06;;;13.01;74.93
79639;BME280;69114;49.108;8.280;2023-08-07T07:18:00;100549.69;;;13.05;74.55
79639;BME280;69114;49.108;8.280;2023-08-07T07:20:26;100546.53;;;13.07;74.50
79639;BME280;69114;49.108;8.280;2023-08-07T07:22:52;100550.84;;;13.13;73.13
79639;BME280;69114;49.108;8.280;2023-08-07T07:25:17;100555.94;;;13.11;72.63
79639;BME280;69114;49.108;8.280;2023-08-07T07:27:43;100555.84;;;13.33;70.54
79639;BME280;69114;49.108;8.280;2023-08-07T07:30:08;100567.47;;;13.18;71.25
79639;BME280;69114;49.108;8.280;2023-08-07T07:32:34;100573.16;;;13.04;70.86
79639;BME280;69114;49.108;8.280;2023-08-07T07:35:00;100570.22;;;13.10;71.08
79639;BME280;69114;49.108;8.280;2023-08-07T07:37:25;100573.72;;;13.15;70.70
79639;BME280;69114;49.108;8.280;2023-08-07T07:39:50;100574.28;;;13.26;70.70
79639;BME280;69114;49.108;8.280;2023-08-07T07:42:16;100578.53;;;13.23;71.15
79639;BME280;69114;49.108;8.280;2023-08-07T07:44:41;100575.66;;;13.06;71.52
79639;BME280;69114;49.108;8.280;2023-08-07T07:47:07;100580.44;;;13.14;70.71
79639;BME280;69114;49.108;8.280;2023-08-07T07:49:33;100576.09;;;13.30;70.67
79639;BME280;69114;49.108;8.280;2023-08-07T07:51:58;100577.84;;;13.18;69.92
79639;BME280;69114;49.108;8.280;2023-08-07T07:54:23;100583.50;;;13.26;69.96
79639;BME280;69114;49.108;8.280;2023-08-07T07:56:49;100587.13;;;13.36;69.95
79639;BME280;69114;49.108;8.280;2023-08-07T07:59:14;100591.28;;;13.47;69.34
79639;BME280;69114;49.108;8.280;2023-08-07T08:01:40;100586.03;;;13.54;69.24
79639;BME280;69114;49.108;8.280;2023-08-07T08:04:05;100585.56;;;13.69;68.25
79639;BME280;69114;49.108;8.280;2023-08-07T08:06:31;100581.63;;;13.79;68.65
79639;BME280;69114;49.108;8.280;2023-08-07T08:08:56;100589.69;;;13.80;68.13
79639;BME280;69114;49.108;8.280;2023-08-07T08:11:22;100590.53;;;13.90;68.35
79639;BME280;69114;49.108;8.280;2023-08-07T08:13:47;100590.22;;;13.91;68.23
79639;BME280;69114;49.108;8.280;2023-08-07T08:16:13;100590.03;;;14.22;67.61
79639;BME280;69114;49.108;8.280;2023-08-07T08:18:38;100598.09;;;14.24;66.45
79639;BME280;69114;49.108;8.280;2023-08-07T08:21:03;100605.19;;;14.21;66.12
79639;BME280;69114;49.108;8.280;2023-08-07T08:23:29;100599.25;;;14.14;66.57
79639;BME280;69114;49.108;8.280;2023-08-07T08:25:54;100596.16;;;14.24;66.88
79639;BME280;69114;49.108;8.280;2023-08-07T08:28:19;100603.56;;;14.55;66.41
79639;BME280;69114;49.108;8.280;2023-08-07T08:30:45;100605.50;;;14.46;66.95
79639;BME280;69114;49.108;8.280;2023-08-07T08:33:10;100609.06;;;14.90;65.89
79639;BME280;69114;49.108;8.280;2023-08-07T08:35:38;100618.03;;;14.74;65.98
79639;BME280;69114;49.108;8.280;2023-08-07T08:38:03;100619.00;;;14.78;64.94
79639;BME280;69114;49.108;8.280;2023-08-07T08:40:30;100616.81;;;14.93;64.48
79639;BME280;69114;49.108;8.280;2023-08-07T08:42:56;100627.03;;;14.97;64.27
79639;BME280;69114;49.108;8.280;2023-08-07T08:45:25;100615.91;;;15.18;64.92
79639;BME280;69114;49.108;8.280;2023-08-07T08:47:51;100618.59;;;15.06;61.98
79639;BME280;69114;49.108;8.280;2023-08-07T08:50:20;100617.66;;;14.93;62.92
79639;BME280;69114;49.108;8.280;2023-08-07T08:52:46;100610.31;;;15.09;62.53
79639;BME280;69114;49.108;8.280;2023-08-07T08:55:12;100612.25;;;15.26;61.04
79639;BME280;69114;49.108;8.280;2023-08-07T08:57:39;100609.25;;;15.31;61.62
79639;BME280;69114;49.108;8.280;2023-08-07T09:00:06;100606.59;;;15.35;62.11
79639;BME280;69114;49.108;8.280;2023-08-07T09:02:41;100611.41;;;15.55;60.76
79639;BME280;69114;49.108;8.280;2023-08-07T09:05:08;100618.38;;;15.58;60.77
79639;BME280;69114;49.108;8.280;2023-08-07T09:07:35;100611.22;;;15.69;59.41
79639;BME280;69114;49.108;8.280;2023-08-07T09:10:02;100613.78;;;15.83;58.81
79639;BME280;69114;49.108;8.280;2023-08-07T09:12:29;100617.50;;;15.96;58.08
79639;BME280;69114;49.108;8.280;2023-08-07T09:14:57;100618.00;;;15.89;57.53
79639;BME280;69114;49.108;8.280;2023-08-07T09:17:24;100606.81;;;16.10;57.88
79639;BME280;69114;49.108;8.280;2023-08-07T09:19:55;100610.19;;;15.95;57.53
79639;BME280;69114;49.108;8.280;2023-08-07T09:22:21;100612.06;;;15.91;57.68
79639;BME280;69114;49.108;8.280;2023-08-07T09:24:47;100612.06;;;15.91;58.49
79639;BME280;69114;49.108;8.280;2023-08-07T09:27:13;100620.75;;;15.77;58.44
79639;BME280;69114;49.108;8.280;2023-08-07T09:29:43;100614.22;;;15.55;58.56
79639;BME280;69114;49.108;8.280;2023-08-07T09:32:12;100619.03;;;15.84;59.22
79639;BME280;69114;49.108;8.280;2023-08-07T09:37:14;100616.09;;;16.23;58.48
79639;BME280;69114;49.108;8.280;2023-08-07T09:39:41;100616.09;;;16.23;57.55
79639;BME280;69114;49.108;8.280;2023-08-07T09:42:14;100615.34;;;16.34;56.11
79639;BME280;69114;49.108;8.280;2023-08-07T09:44:43;100618.63;;;16.36;56.38
79639;BME280;69114;49.108;8.280;2023-08-07T09:47:14;100623.09;;;16.71;55.51
79639;BME280;69114;49.108;8.280;2023-08-07T09:49:40;100615.13;;;16.39;55.94
79639;BME280;69114;49.108;8.280;2023-08-07T09:52:06;100624.91;;;16.54;55.90
79639;BME280;69114;49.108;8.280;2023-08-07T09:54:35;100627.06;;;16.36;56.37
79639;BME280;69114;49.108;8.280;2023-08-07T09:57:02;100648.66;;;16.45;54.99
79639;BME280;69114;49.108;8.280;2023-08-07T09:59:28;100627.84;;;16.25;55.73
79639;BME280;69114;49.108;8.280;2023-08-07T10:01:54;100627.50;;;16.80;56.03
79639;BME280;69114;49.108;8.280;2023-08-07T10:04:23;100615.00;;;17.02;53.48
79639;BME280;69114;49.108;8.280;2023-08-07T10:06:49;100619.50;;;17.15;53.89
79639;BME280;69114;49.108;8.280;2023-08-07T10:09:16;100612.28;;;16.94;53.97
79639;BME280;69114;49.108;8.280;2023-08-07T10:11:41;100613.28;;;17.47;52.34
79639;BME280;69114;49.108;8.280;2023-08-07T10:14:08;100616.28;;;16.93;53.58
79639;BME280;69114;49.108;8.280;2023-08-07T10:16:34;100604.22;;;16.92;53.25
79639;BME280;69114;49.108;8.280;2023-08-07T10:19:05;100608.13;;;17.36;51.30
79639;BME280;69114;49.108;8.280;2023-08-07T10:21:33;100612.94;;;17.60;52.30
79639;BME280;69114;49.108;8.280;2023-08-07T10:23:59;100606.09;;;17.00;52.17
79639;BME280;69114;49.108;8.280;2023-08-07T10:29:06;100609.69;;;16.88;52.65
79639;BME280;69114;49.108;8.280;2023-08-07T10:31:34;100611.84;;;17.04;53.25
79639;BME280;69114;49.108;8.280;2023-08-07T10:34:01;100616.28;;;16.93;54.18
79639;BME280;69114;49.108;8.280;2023-08-07T10:36:34;100616.28;;;16.93;53.70
79639;BME280;69114;49.108;8.280;2023-08-07T10:39:12;100604.44;;;16.99;52.72
79639;BME280;69114;49.108;8.280;2023-08-07T10:41:47;100612.41;;;16.97;52.19
79639;BME280;69114;49.108;8.280;2023-08-07T10:49:35;100616.31;;;16.38;54.35
79639;BME280;69114;49.108;8.280;2023-08-07T10:52:08;100612.88;;;16.33;54.13
79639;BME280;69114;49.108;8.280;2023-08-07T10:54:59;100618.19;;;16.47;54.07
79639;BME280;69114;49.108;8.280;2023-08-07T10:57:31;100623.25;;;16.20;54.12
79639;BME280;69114;49.108;8.280;2023-08-07T11:02:23;100628.03;;;16.41;53.66
79639;BME280;69114;49.108;8.280;2023-08-07T11:04:51;100627.81;;;16.46;54.57
79639;BME280;69114;49.108;8.280;2023-08-07T11:07:25;100625.59;;;16.51;55.28
79639;BME280;69114;49.108;8.280;2023-08-07T11:09:51;100620.25;;;16.58;54.13
79639;BME280;69114;49.108;8.280;2023-08-07T11:12:16;100625.72;;;16.43;54.86
79639;BME280;69114;49.108;8.280;2023-08-07T11:14:41;100625.53;;;16.60;54.19
79639;BME280;69114;49.108;8.280;2023-08-07T11:17:07;100630.41;;;16.51;52.83
79639;BME280;69114;49.108;8.280;2023-08-07T11:19:33;100632.97;;;16.44;52.60
79639;BME280;69114;49.108;8.280;2023-08-07T11:21:58;100624.34;;;16.61;52.66
79639;BME280;69114;49.108;8.280;2023-08-07T11:24:27;100626.06;;;16.74;51.12
79639;BME280;69114;49.108;8.280;2023-08-07T11:26:52;100632.78;;;16.82;52.40
79639;BME280;69114;49.108;8.280;2023-08-07T11:29:20;100630.63;;;17.00;51.52
79639;BME280;69114;49.108;8.280;2023-08-07T11:31:47;100618.66;;;17.03;51.60
79639;BME280;69114;49.108;8.280;2023-08-07T11:34:19;100613.09;;;16.94;52.00
79639;BME280;69114;49.108;8.280;2023-08-07T11:36:45;100622.44;;;17.31;52.36
79639;BME280;69114;49.108;8.280;2023-08-07T11:39:11;100622.91;;;17.21;52.32
79639;BME280;69114;49.108;8.280;2023-08-07T11:41:40;100620.81;;;17.43;51.21
79639;BME280;69114;49.108;8.280;2023-08-07T11:44:09;100623.97;;;17.53;50.66
79639;BME280;69114;49.108;8.280;2023-08-07T11:46:37;100619.84;;;18.00;51.56
79639;BME280;69114;49.108;8.280;2023-08-07T11:49:04;100615.09;;;18.56;47.27
79639;BME280;69114;49.108;8.280;2023-08-07T11:51:32;100605.59;;;18.77;46.42
79639;BME280;69114;49.108;8.280;2023-08-07T11:54:04;100615.91;;;18.85;46.65
79639;BME280;69114;49.108;8.280;2023-08-07T11:56:32;100627.28;;;18.60;47.39
79639;BME280;69114;49.108;8.280;2023-08-07T11:58:58;100612.97;;;18.25;47.45
79639;BME280;69114;49.108;8.280;2023-08-07T12:01:25;100612.16;;;18.53;46.85
79639;BME280;69114;49.108;8.280;2023-08-07T12:03:55;100603.66;;;19.09;44.60
79639;BME280;69114;49.108;8.280;2023-08-07T12:06:23;100604.81;;;19.08;45.12
79639;BME280;69114;49.108;8.280;2023-08-07T12:08:50;100609.94;;;19.18;45.69
79639;BME280;69114;49.108;8.280;2023-08-07T12:11:16;100604.16;;;18.99;45.91
79639;BME280;69114;49.108;8.280;2023-08-07T12:13:43;100609.63;;;18.91;46.41
79639;BME280;69114;49.108;8.280;2023-08-07T12:16:13;100606.13;;;18.26;46.80
79639;BME280;69114;49.108;8.280;2023-08-07T12:18:44;100600.38;;;18.23;47.88
79639;BME280;69114;49.108;8.280;2023-08-07T12:21:13;100593.91;;;18.62;47.15
79639;BME280;69114;49.108;8.280;2023-08-07T12:23:46;100596.72;;;18.34;46.56
79639;BME280;69114;49.108;8.280;2023-08-07T12:26:13;100600.63;;;18.58;46.92
79639;BME280;69114;49.108;8.280;2023-08-07T12:28:39;100597.97;;;18.65;46.34
79639;BME280;69114;49.108;8.280;2023-08-07T12:31:04;100604.47;;;19.57;44.59
79639;BME280;69114;49.108;8.280;2023-08-07T12:33:30;100595.81;;;19.34;44.24
79639;BME280;69114;49.108;8.280;2023-08-07T12:35:57;100593.47;;;20.41;41.33
79639;BME280;69114;49.108;8.280;2023-08-07T12:38:22;100603.28;;;20.67;41.16
79639;BME280;69114;49.108;8.280;2023-08-07T12:40:48;100597.41;;;20.37;43.29
79639;BME280;69114;49.108;8.280;2023-08-07T12:43:13;100584.97;;;20.41;42.14
79639;BME280;69114;49.108;8.280;2023-08-07T12:45:41;100592.34;;;21.31;40.53
79639;BME280;69114;49.108;8.280;2023-08-07T12:48:06;100579.31;;;22.36;38.40
79639;BME280;69114;49.108;8.280;2023-08-07T12:50:32;100590.66;;;22.06;38.86
79639;BME280;69114;49.108;8.280;2023-08-07T12:52:57;100588.31;;;20.08;42.79
79639;BME280;69114;49.108;8.280;2023-08-07T12:55:23;100601.28;;;19.42;44.24
79639;BME280;69114;49.108;8.280;2023-08-07T12:57:49;100609.81;;;19.46;45.82
79639;BME280;69114;49.108;8.280;2023-08-07T13:00:15;100609.09;;;19.65;44.78
79639;BME280;69114;49.108;8.280;2023-08-07T13:02:42;100602.31;;;21.02;40.43
79639;BME280;69114;49.108;8.280;2023-08-07T13:05:07;100604.84;;;20.64;40.75
79639;BME280;69114;49.108;8.280;2023-08-07T13:07:34;100605.41;;;21.88;37.25
79639;BME280;69114;49.108;8.280;2023-08-07T13:09:59;100592.53;;;22.55;37.85